createdAt,value
2022-07-27T00:00:39.367Z,100545.03
2022-07-27T00:03:42.164Z,100554.97
2022-07-27T00:06:44.856Z,100552.53
2022-07-27T00:09:48.842Z,100551.00
2022-07-27T00:12:51.359Z,100547.59
2022-07-27T00:15:54.112Z,100555.44
2022-07-27T00:18:56.620Z,100553.84
2022-07-27T00:21:59.906Z,100555.97
2022-07-27T00:25:03.865Z,100546.06
2022-07-27T00:28:06.802Z,100552.25
2022-07-27T00:31:09.386Z,100550.50
2022-07-27T00:34:12.000Z,100547.78
2022-07-27T00:37:14.573Z,100547.94
2022-07-27T00:40:18.514Z,100552.38
2022-07-27T00:43:21.027Z,100550.59
2022-07-27T00:46:24.797Z,100550.59
2022-07-27T00:49:27.887Z,100555.97
2022-07-27T00:52:31.339Z,100560.44
2022-07-27T00:55:35.545Z,100549.75
2022-07-27T00:58:39.110Z,100563.84
2022-07-27T01:01:42.232Z,100569.13
2022-07-27T01:04:47.167Z,100568.91
2022-07-27T01:07:50.274Z,100561.88
2022-07-27T01:10:56.665Z,100566.09
2022-07-27T01:13:59.204Z,100569.78
2022-07-27T01:17:01.733Z,100568.31
2022-07-27T01:20:05.351Z,100567.72
2022-07-27T01:23:09.422Z,100568.31
2022-07-27T01:26:11.966Z,100556.88
2022-07-27T01:29:14.979Z,100558.91
2022-07-27T01:32:17.744Z,100563.69
2022-07-27T01:35:20.449Z,100572.84
2022-07-27T01:38:24.692Z,100566.19
2022-07-27T01:41:27.251Z,100573.34
2022-07-27T01:44:29.806Z,100568.22
2022-07-27T01:47:32.339Z,100569.34
2022-07-27T01:50:34.993Z,100573.75
2022-07-27T01:53:38.922Z,100561.53
2022-07-27T01:56:42.322Z,100567.03
2022-07-27T01:59:44.851Z,100561.72
2022-07-27T02:02:47.378Z,100563.06
2022-07-27T02:05:49.997Z,100558.75
2022-07-27T02:08:53.884Z,100565.50
2022-07-27T02:12:14.306Z,100558.84
2022-07-27T02:15:20.234Z,100558.22
2022-07-27T02:18:33.526Z,100562.81
2022-07-27T02:21:39.070Z,100551.63
2022-07-27T02:24:42.949Z,100569.19
2022-07-27T02:27:46.739Z,100560.25
2022-07-27T02:30:49.413Z,100562.63
2022-07-27T02:33:51.930Z,100556.66
2022-07-27T02:36:55.120Z,100558.16
2022-07-27T02:39:59.026Z,100558.66
2022-07-27T02:43:02.149Z,100564.00
2022-07-27T02:46:04.880Z,100558.41
2022-07-27T02:49:07.688Z,100560.81
2022-07-27T02:52:10.344Z,100561.66
2022-07-27T02:55:14.242Z,100555.94
2022-07-27T02:58:16.777Z,100553.44
2022-07-27T03:01:19.403Z,100555.31
2022-07-27T03:04:22.024Z,100551.75
2022-07-27T03:07:24.589Z,100552.81
2022-07-27T03:10:28.456Z,100556.97
2022-07-27T03:13:31.383Z,100561.97
2022-07-27T03:16:33.929Z,100563.69
2022-07-27T03:19:36.474Z,100560.03
2022-07-27T03:22:39.030Z,100565.53
2022-07-27T03:25:42.889Z,100568.88
2022-07-27T03:28:45.773Z,100569.06
2022-07-27T03:31:48.317Z,100566.59
2022-07-27T03:34:51.171Z,100567.81
2022-07-27T03:37:53.767Z,100567.03
2022-07-27T03:40:57.615Z,100569.31
2022-07-27T03:44:00.125Z,100563.69
2022-07-27T03:47:02.697Z,100567.97
2022-07-27T03:50:06.131Z,100557.19
2022-07-27T03:53:09.189Z,100567.03
2022-07-27T03:56:13.071Z,100576.31
2022-07-27T03:59:16.225Z,100571.88
2022-07-27T04:02:18.831Z,100567.53
2022-07-27T04:05:21.884Z,100572.81
2022-07-27T04:08:24.394Z,100572.38
2022-07-27T04:11:29.724Z,100572.06
2022-07-27T04:14:32.252Z,100571.81
2022-07-27T04:17:54.876Z,100569.94
2022-07-27T04:20:57.311Z,100573.19
2022-07-27T04:23:59.835Z,100576.31
2022-07-27T04:27:03.762Z,100578.91
2022-07-27T04:30:09.652Z,100579.22
2022-07-27T04:33:12.454Z,100576.81
2022-07-27T04:36:14.969Z,100579.19
2022-07-27T04:39:17.547Z,100584.53
2022-07-27T04:42:21.415Z,100580.75
2022-07-27T04:45:24.454Z,100579.81
2022-07-27T04:48:26.981Z,100580.50
2022-07-27T04:51:34.331Z,100593.19
2022-07-27T04:54:37.283Z,100587.06
2022-07-27T04:57:41.935Z,100586.34
2022-07-27T05:00:44.703Z,100590.41
2022-07-27T05:03:47.371Z,100589.88
2022-07-27T05:06:49.982Z,100589.31
2022-07-27T05:09:52.504Z,100580.25
2022-07-27T05:12:57.033Z,100591.25
2022-07-27T05:15:59.631Z,100584.41
2022-07-27T05:19:02.208Z,100589.88
2022-07-27T05:22:04.799Z,100588.13
2022-07-27T05:25:08.074Z,100593.63
2022-07-27T05:28:13.797Z,100590.31
2022-07-27T05:31:16.358Z,100599.22
2022-07-27T05:34:19.019Z,100595.94
2022-07-27T05:37:21.539Z,100597.00
2022-07-27T05:40:24.078Z,100599.63
2022-07-27T05:43:28.401Z,100596.75
2022-07-27T05:46:33.234Z,100591.72
2022-07-27T05:49:35.813Z,100591.50
2022-07-27T05:52:38.436Z,100602.34
2022-07-27T05:55:58.958Z,100618.91
2022-07-27T05:59:07.029Z,100612.63
2022-07-27T06:02:10.078Z,100617.69
2022-07-27T06:05:16.006Z,100617.25
2022-07-27T06:08:21.343Z,100615.75
2022-07-27T06:11:23.949Z,100629.91
2022-07-27T06:14:27.849Z,100636.25
2022-07-27T06:17:30.358Z,100636.72
2022-07-27T06:20:33.763Z,100642.81
2022-07-27T06:23:36.289Z,100632.25
2022-07-27T06:26:38.840Z,100640.97
2022-07-27T06:29:42.850Z,100640.41
2022-07-27T06:32:45.731Z,100641.19
2022-07-27T06:35:49.391Z,100644.94
2022-07-27T06:38:51.928Z,100650.13
2022-07-27T06:41:58.115Z,100651.81
2022-07-27T06:45:02.299Z,100659.09
2022-07-27T06:48:05.450Z,100662.25
2022-07-27T06:51:08.817Z,100666.75
2022-07-27T06:54:11.490Z,100664.91
2022-07-27T06:57:14.063Z,100651.91
2022-07-27T07:00:18.450Z,100657.50
2022-07-27T07:03:21.033Z,100651.94
2022-07-27T07:06:23.598Z,100648.75
2022-07-27T07:09:26.907Z,100660.56
2022-07-27T07:12:29.476Z,100648.66
2022-07-27T07:15:33.416Z,100650.25
2022-07-27T07:18:35.940Z,100655.06
2022-07-27T07:21:38.461Z,100652.31
2022-07-27T07:24:40.987Z,100643.16
2022-07-27T07:27:43.539Z,100651.22
2022-07-27T07:30:47.662Z,100645.47
2022-07-27T07:33:50.203Z,100645.56
2022-07-27T07:36:52.748Z,100653.19
2022-07-27T07:39:55.404Z,100647.94
2022-07-27T07:43:00.044Z,100652.69
2022-07-27T07:46:04.125Z,100656.56
2022-07-27T07:49:07.175Z,100647.22
2022-07-27T07:52:09.744Z,100653.25
2022-07-27T07:55:12.522Z,100658.97
2022-07-27T07:58:15.773Z,100659.56
2022-07-27T08:01:19.673Z,100648.44
2022-07-27T08:04:22.296Z,100650.97
2022-07-27T08:07:24.812Z,100663.09
2022-07-27T08:10:28.102Z,100656.81
2022-07-27T08:13:30.615Z,100657.53
2022-07-27T08:16:34.529Z,100645.31
2022-07-27T08:19:40.232Z,100650.47
2022-07-27T08:22:43.563Z,100651.63
2022-07-27T08:25:46.925Z,100656.91
2022-07-27T08:28:49.502Z,100654.94
2022-07-27T08:31:54.613Z,100658.59
2022-07-27T08:34:58.742Z,100656.84
2022-07-27T08:38:02.848Z,100662.19
2022-07-27T08:41:07.631Z,100667.47
2022-07-27T08:44:14.598Z,100667.63
2022-07-27T08:47:19.870Z,100670.97
2022-07-27T08:50:27.488Z,100676.97
2022-07-27T08:53:34.096Z,100675.00
2022-07-27T08:56:54.906Z,100682.66
2022-07-27T08:59:57.609Z,100675.88
2022-07-27T09:03:01.801Z,100680.56
2022-07-27T09:06:05.635Z,100676.25
2022-07-27T09:09:08.862Z,100683.31
2022-07-27T09:12:11.788Z,100681.22
2022-07-27T09:15:16.904Z,100687.78
2022-07-27T09:18:22.996Z,100683.88
2022-07-27T09:21:26.047Z,100692.31
2022-07-27T09:24:46.252Z,100685.59
2022-07-27T09:27:54.062Z,100694.25
2022-07-27T09:30:56.644Z,100690.94
2022-07-27T09:34:02.395Z,100692.16
2022-07-27T09:37:06.499Z,100688.00
2022-07-27T09:40:13.847Z,100688.50
2022-07-27T09:44:12.107Z,100680.13
2022-07-27T09:46:41.866Z,100690.72
2022-07-27T09:49:45.818Z,100679.59
2022-07-27T09:52:48.890Z,100676.81
2022-07-27T09:56:01.270Z,100680.34
2022-07-27T09:59:04.707Z,100681.00
2022-07-27T10:02:07.777Z,100679.38
2022-07-27T10:05:14.018Z,100688.09
2022-07-27T10:08:17.022Z,100685.41
2022-07-27T10:11:21.731Z,100679.00
2022-07-27T10:14:25.719Z,100684.66
2022-07-27T10:17:28.790Z,100679.13
2022-07-27T10:20:34.309Z,100682.06
2022-07-27T10:23:38.206Z,100686.63
2022-07-27T10:26:42.295Z,100685.03
2022-07-27T10:29:44.815Z,100688.19
2022-07-27T10:32:47.352Z,100694.09
2022-07-27T10:35:52.053Z,100706.72
2022-07-27T10:38:56.591Z,100690.78
2022-07-27T10:42:27.314Z,100691.63
2022-07-27T10:45:50.294Z,100699.44
2022-07-27T10:49:18.088Z,100695.91
2022-07-27T10:52:41.725Z,100696.25
2022-07-27T10:55:49.296Z,100684.97
2022-07-27T10:58:52.829Z,100694.31
2022-07-27T11:01:59.161Z,100697.19
2022-07-27T11:05:05.205Z,100700.63
2022-07-27T11:08:36.564Z,100690.75
2022-07-27T11:11:34.481Z,100688.97
2022-07-27T11:14:46.255Z,100688.44
2022-07-27T11:17:58.422Z,100684.19
2022-07-27T11:21:14.854Z,100673.16
2022-07-27T11:24:19.255Z,100686.50
2022-07-27T11:27:25.180Z,100682.66
2022-07-27T11:30:29.844Z,100676.88
2022-07-27T11:33:32.475Z,100676.66
2022-07-27T11:36:43.594Z,100683.59
2022-07-27T11:40:27.832Z,100676.88
2022-07-27T11:43:11.954Z,100686.00
2022-07-27T11:46:20.594Z,100680.34
2022-07-27T11:49:26.771Z,100682.06
2022-07-27T11:52:29.389Z,100685.88
2022-07-27T11:55:33.351Z,100679.03
2022-07-27T11:58:57.124Z,100685.16
2022-07-27T12:02:04.926Z,100698.22
2022-07-27T12:05:11.514Z,100674.78
2022-07-27T12:08:14.325Z,100675.84
2022-07-27T12:11:34.012Z,100688.91
2022-07-27T12:14:39.402Z,100683.06
2022-07-27T12:17:43.633Z,100676.13
2022-07-27T12:20:48.889Z,100679.25
2022-07-27T12:23:55.697Z,100670.91
2022-07-27T12:27:15.434Z,100679.66
2022-07-27T12:30:20.197Z,100683.03
2022-07-27T12:33:29.411Z,100672.63
2022-07-27T12:36:33.048Z,100674.13
2022-07-27T12:39:36.433Z,100676.78
2022-07-27T12:42:41.044Z,100677.69
2022-07-27T12:45:45.906Z,100675.28
2022-07-27T12:48:49.089Z,100675.69
2022-07-27T12:51:52.975Z,100663.38
2022-07-27T12:54:56.294Z,100664.47
2022-07-27T12:58:03.169Z,100664.69
2022-07-27T13:01:07.255Z,100671.91
2022-07-27T13:04:10.316Z,100673.47
2022-07-27T13:07:12.863Z,100680.09
2022-07-27T13:10:18.745Z,100674.88
2022-07-27T13:13:24.730Z,100677.78
2022-07-27T13:16:27.562Z,100684.06
2022-07-27T13:19:30.212Z,100674.88
2022-07-27T13:22:32.931Z,100667.09
2022-07-27T13:25:41.190Z,100678.78
2022-07-27T13:28:48.208Z,100675.94
2022-07-27T13:35:00.028Z,100682.25
2022-07-27T13:38:02.540Z,100687.47
2022-07-27T13:41:05.090Z,100665.34
2022-07-27T13:44:23.927Z,100681.81
2022-07-27T13:47:32.773Z,100684.16
2022-07-27T13:50:35.362Z,100688.22
2022-07-27T13:53:52.197Z,100689.19
2022-07-27T13:56:59.371Z,100669.47
2022-07-27T14:00:05.328Z,100678.69
2022-07-27T14:03:11.257Z,100676.28
2022-07-27T14:06:15.053Z,100676.50
2022-07-27T14:09:21.418Z,100680.97
2022-07-27T14:12:27.842Z,100665.59
2022-07-27T14:15:32.902Z,100669.66
2022-07-27T14:18:36.170Z,100671.06
2022-07-27T14:21:39.336Z,100672.69
2022-07-27T14:24:45.338Z,100671.47
2022-07-27T14:27:48.034Z,100673.97
2022-07-27T14:30:51.940Z,100666.50
2022-07-27T14:33:54.445Z,100660.63
2022-07-27T14:36:56.961Z,100666.47
2022-07-27T14:39:59.668Z,100665.03
2022-07-27T14:43:02.221Z,100663.13
2022-07-27T14:46:06.084Z,100659.78
2022-07-27T14:49:09.414Z,100663.72
2022-07-27T14:52:14.228Z,100669.88
2022-07-27T14:55:16.920Z,100674.97
2022-07-27T14:58:19.465Z,100676.19
2022-07-27T15:01:23.370Z,100664.50
2022-07-27T15:04:26.243Z,100659.72
2022-07-27T15:07:29.016Z,100668.88
2022-07-27T15:10:31.679Z,100665.84
2022-07-27T15:13:35.359Z,100675.88
2022-07-27T15:16:39.343Z,100681.03
2022-07-27T15:19:41.863Z,100667.94
2022-07-27T15:22:44.426Z,100662.47
2022-07-27T15:25:48.134Z,100663.91
2022-07-27T15:28:51.074Z,100663.44
2022-07-27T15:31:54.967Z,100660.47
2022-07-27T15:34:57.521Z,100664.84
2022-07-27T15:38:00.028Z,100669.72
2022-07-27T15:41:02.596Z,100658.75
2022-07-27T15:44:05.746Z,100665.78
2022-07-27T15:47:10.005Z,100667.69
2022-07-27T15:50:12.966Z,100671.19
2022-07-27T15:53:15.773Z,100673.81
2022-07-27T15:56:18.299Z,100677.88
2022-07-27T15:59:20.826Z,100671.97
2022-07-27T16:02:26.538Z,100671.09
2022-07-27T16:05:29.218Z,100676.22
2022-07-27T16:08:31.894Z,100661.94
2022-07-27T16:11:34.409Z,100672.13
2022-07-27T16:14:36.901Z,100672.13
2022-07-27T16:17:40.764Z,100666.03
2022-07-27T16:20:43.650Z,100663.72
2022-07-27T16:23:46.416Z,100649.81
2022-07-27T16:26:48.998Z,100645.00
2022-07-27T16:29:51.601Z,100646.03
2022-07-27T16:32:56.122Z,100649.34
2022-07-27T16:35:58.899Z,100651.44
2022-07-27T16:39:01.404Z,100648.81
2022-07-27T16:42:04.158Z,100645.19
2022-07-27T16:45:09.106Z,100644.59
2022-07-27T16:48:13.334Z,100636.09
2022-07-27T16:51:16.938Z,100638.22
2022-07-27T16:54:19.470Z,100641.00
2022-07-27T16:57:23.741Z,100645.72
2022-07-27T17:00:26.311Z,100649.06
2022-07-27T17:03:30.165Z,100650.72
2022-07-27T17:06:35.128Z,100649.63
2022-07-27T17:09:37.628Z,100640.91
2022-07-27T17:12:40.178Z,100638.88
2022-07-27T17:15:45.151Z,100643.78
2022-07-27T17:18:49.001Z,100645.88
2022-07-27T17:21:51.523Z,100635.16
2022-07-27T17:24:54.072Z,100628.78
2022-07-27T17:27:56.620Z,100634.72
2022-07-27T17:30:59.167Z,100639.66
2022-07-27T17:34:03.030Z,100639.09
2022-07-27T17:37:05.701Z,100640.94
2022-07-27T17:40:09.159Z,100638.00
2022-07-27T17:43:13.002Z,100642.66
2022-07-27T17:46:15.701Z,100641.63
2022-07-27T17:49:19.767Z,100629.22
2022-07-27T17:52:22.892Z,100631.03
2022-07-27T17:55:25.647Z,100628.50
2022-07-27T17:58:30.385Z,100633.00
2022-07-27T18:01:48.120Z,100640.50
2022-07-27T18:04:52.573Z,100640.63
2022-07-27T18:07:55.105Z,100637.94
2022-07-27T18:10:57.667Z,100649.91
2022-07-27T18:14:00.192Z,100647.63
2022-07-27T18:17:02.698Z,100652.88
2022-07-27T18:20:08.509Z,100649.75
2022-07-27T18:23:11.036Z,100644.75
2022-07-27T18:26:13.823Z,100649.56
2022-07-27T18:29:16.772Z,100652.41
2022-07-27T18:32:19.421Z,100654.16
2022-07-27T18:35:23.673Z,100656.47
2022-07-27T18:38:26.321Z,100662.50
2022-07-27T18:41:28.856Z,100655.78
2022-07-27T18:44:36.827Z,100659.22
2022-07-27T18:47:41.219Z,100664.22
2022-07-27T18:50:53.882Z,100669.41
2022-07-27T18:53:56.392Z,100673.53
2022-07-27T18:56:59.915Z,100678.63
2022-07-27T19:00:02.481Z,100672.97
2022-07-27T19:03:05.254Z,100681.94
2022-07-27T19:06:11.396Z,100682.53
2022-07-27T19:09:19.259Z,100678.31
2022-07-27T19:12:21.820Z,100692.78
2022-07-27T19:15:24.776Z,100696.22
2022-07-27T19:18:27.440Z,100700.69
2022-07-27T19:21:32.269Z,100702.19
2022-07-27T19:24:34.891Z,100703.47
2022-07-27T19:27:38.287Z,100708.78
2022-07-27T19:30:41.126Z,100704.84
2022-07-27T19:33:44.058Z,100715.81
2022-07-27T19:36:47.914Z,100711.78
2022-07-27T19:39:57.305Z,100721.59
2022-07-27T19:43:05.524Z,100712.94
2022-07-27T19:46:08.361Z,100723.25
2022-07-27T19:49:11.432Z,100721.63
2022-07-27T19:52:17.275Z,100710.53
2022-07-27T19:55:20.067Z,100719.66
2022-07-27T19:58:23.326Z,100725.25
2022-07-27T20:01:26.389Z,100724.88
2022-07-27T20:04:29.186Z,100728.88
2022-07-27T20:07:33.266Z,100733.53
2022-07-27T20:10:35.839Z,100736.59
2022-07-27T20:13:38.415Z,100739.06
2022-07-27T20:16:41.936Z,100741.53
2022-07-27T20:19:45.221Z,100743.44
2022-07-27T20:22:49.355Z,100753.63
2022-07-27T20:25:52.109Z,100755.88
2022-07-27T20:28:54.631Z,100745.94
2022-07-27T20:31:57.423Z,100754.63
2022-07-27T20:35:01.200Z,100756.72
2022-07-27T20:38:05.059Z,100757.66
2022-07-27T20:41:07.593Z,100765.72
2022-07-27T20:44:10.122Z,100763.91
2022-07-27T20:47:14.586Z,100760.41
2022-07-27T20:50:17.110Z,100770.75
2022-07-27T20:53:21.107Z,100771.13
2022-07-27T20:56:23.701Z,100771.16
2022-07-27T20:59:26.302Z,100769.31
2022-07-27T21:02:28.948Z,100766.66
2022-07-27T21:05:31.755Z,100774.47
2022-07-27T21:08:35.583Z,100781.13
2022-07-27T21:11:38.139Z,100775.50
2022-07-27T21:14:40.677Z,100782.50
2022-07-27T21:17:43.763Z,100792.81
2022-07-27T21:20:46.360Z,100788.00
2022-07-27T21:24:07.831Z,100794.88
2022-07-27T21:27:11.443Z,100794.81
2022-07-27T21:30:14.785Z,100794.56
2022-07-27T21:33:17.362Z,100798.38
2022-07-27T21:36:19.943Z,100800.13
2022-07-27T21:39:24.978Z,100809.00
2022-07-27T21:42:27.771Z,100814.78
2022-07-27T21:45:30.405Z,100810.09
2022-07-27T21:48:33.253Z,100821.59
2022-07-27T21:51:35.800Z,100819.81
2022-07-27T21:54:39.855Z,100826.47
2022-07-27T21:57:42.380Z,100826.16
2022-07-27T22:00:45.010Z,100829.94
2022-07-27T22:03:47.707Z,100834.25
2022-07-27T22:06:50.357Z,100827.69
2022-07-27T22:09:54.280Z,100831.59
2022-07-27T22:12:57.418Z,100828.34
2022-07-27T22:16:00.265Z,100836.84
2022-07-27T22:19:02.872Z,100839.28
2022-07-27T22:22:05.503Z,100845.03
2022-07-27T22:25:10.682Z,100840.72
2022-07-27T22:28:13.366Z,100843.28
2022-07-27T22:31:22.680Z,100853.00
2022-07-27T22:34:25.982Z,100853.44
2022-07-27T22:37:28.552Z,100859.91
2022-07-27T22:40:32.389Z,100854.13
2022-07-27T22:43:34.992Z,100860.72
2022-07-27T22:46:38.775Z,100885.34
2022-07-27T22:49:41.406Z,100861.84
2022-07-27T22:52:43.958Z,100867.78
2022-07-27T22:55:47.887Z,100861.88
2022-07-27T22:58:50.616Z,100873.28
2022-07-27T23:01:53.898Z,100872.81
2022-07-27T23:04:57.162Z,100866.81
2022-07-27T23:07:59.769Z,100865.97
2022-07-27T23:11:03.623Z,100869.47
2022-07-27T23:14:07.453Z,100879.16
2022-07-27T23:17:10.079Z,100875.69
2022-07-27T23:20:13.090Z,100911.22
2022-07-27T23:23:16.769Z,100890.25
2022-07-27T23:26:23.121Z,100899.75
2022-07-27T23:29:28.509Z,100912.88
2022-07-27T23:32:31.105Z,100879.34
2022-07-27T23:35:34.002Z,100890.72
2022-07-27T23:38:36.981Z,100900.53
2022-07-27T23:41:40.914Z,100877.91
2022-07-27T23:44:43.493Z,100876.53
2022-07-27T23:47:46.171Z,100872.09
2022-07-27T23:50:49.880Z,100875.19
2022-07-27T23:53:52.734Z,100877.31
2022-07-27T23:56:58.396Z,100873.84
